Time;durP1;ratioP1;P1;durP2;ratioP2;P2;SDS_P1;SDS_P2;PMS_P1;PMS_P2;Temp;Humidity;BMP_temperature;BMP_pressure;BME280_temperature;BME280_humidity;BME280_pressure;Samples;Min_cycle;Max_cycle;Signal;HPM_P1;HPM_P2
2023/04/07 00:01:13;;;;;;;20.60;8.83;;;;;;;-145.69;100.00;52315.66;5074922;28;20210;-86
2023/04/07 00:03:42;;;;;;;17.73;9.50;;;;;;;-145.69;100.00;52297.84;5074766;28;20207;-86
2023/04/07 00:06:09;;;;;;;14.90;7.83;;;;;;;-145.69;100.00;52347.34;5074361;28;20226;-85
2023/04/07 00:08:35;;;;;;;16.90;8.33;;;;;;;-145.69;100.00;52317.66;5075322;28;20203;-86
2023/04/07 00:11:02;;;;;;;15.60;7.73;;;;;;;-145.69;100.00;52313.69;5075218;28;20209;-86
2023/04/07 00:13:28;;;;;;;15.57;8.10;;;;;;;-145.69;100.00;52297.84;5075304;28;20213;-86
2023/04/07 00:15:56;;;;;;;19.13;8.57;;;;;;;-145.69;100.00;52327.53;5077708;28;20209;-85
2023/04/07 00:18:25;;;;;;;18.17;8.23;;;;;;;-145.69;100.00;52295.84;5076723;28;20222;-86
2023/04/07 00:20:53;;;;;;;15.73;7.37;;;;;;;-145.69;100.00;52303.78;5077734;28;20594;-85
2023/04/07 00:23:20;;;;;;;22.93;8.77;;;;;;;-145.69;100.00;52301.81;5076018;28;20661;-86
2023/04/07 00:25:47;;;;;;;17.10;8.67;;;;;;;-145.69;100.00;52331.50;5077703;28;20284;-85
2023/04/07 00:28:14;;;;;;;18.63;8.53;;;;;;;-145.69;100.00;52337.44;5078186;28;20199;-85
2023/04/07 00:30:40;;;;;;;17.90;8.33;;;;;;;-145.69;100.00;52337.44;5078644;28;20202;-85
2023/04/07 00:33:11;;;;;;;20.80;9.37;;;;;;;-145.69;100.00;52333.47;5078989;28;20205;-85
2023/04/07 00:35:37;;;;;;;17.87;9.30;;;;;;;-145.69;100.00;52321.59;5078553;28;20203;-85
2023/04/07 00:38:05;;;;;;;17.83;9.10;;;;;;;-145.69;100.00;52329.53;5078399;28;20199;-85
2023/04/07 00:40:32;;;;;;;22.10;9.53;;;;;;;-145.69;100.00;52341.41;5077768;28;20286;-86
2023/04/07 00:42:58;;;;;;;21.57;9.20;;;;;;;-145.69;100.00;52315.66;5077417;28;20281;-85
2023/04/07 00:45:28;;;;;;;19.60;9.20;;;;;;;-145.69;100.00;52297.84;5079025;28;20727;-85
2023/04/07 00:47:56;;;;;;;20.37;9.47;;;;;;;-145.69;100.00;52337.44;5079002;28;20202;-85
2023/04/07 00:50:22;;;;;;;17.30;9.00;;;;;;;-145.69;100.00;52327.53;5078388;28;20258;-84
2023/04/07 00:52:49;;;;;;;17.10;8.70;;;;;;;-145.69;100.00;52333.47;5078201;28;20202;-84
2023/04/07 00:55:17;;;;;;;21.37;9.67;;;;;;;-145.69;100.00;52297.84;5079298;28;20198;-85
2023/04/07 00:57:45;;;;;;;19.73;9.57;;;;;;;-145.69;100.00;52341.41;5077460;28;20203;-86
2023/04/07 01:00:13;;;;;;;20.77;9.63;;;;;;;-145.69;100.00;52291.91;5078181;28;20286;-85
2023/04/07 01:02:43;;;;;;;17.80;9.23;;;;;;;-145.69;100.00;52297.84;5077817;28;20374;-84
2023/04/07 01:05:14;;;;;;;19.93;9.20;;;;;;;-145.69;100.00;52321.59;5077045;28;20234;-84
2023/04/07 01:07:52;;;;;;;20.77;8.83;;;;;;;-145.69;100.00;52295.84;5076856;28;20202;-84
2023/04/07 01:10:27;;;;;;;18.17;8.87;;;;;;;-145.69;100.00;52341.41;5056811;28;20669;-85
2023/04/07 01:13:01;;;;;;;18.53;8.80;;;;;;;-145.69;100.00;52321.59;5063185;28;20221;-83
2023/04/07 01:15:30;;;;;;;21.13;9.93;;;;;;;-145.69;100.00;52293.88;5081343;28;20202;-85
2023/04/07 01:18:04;;;;;;;16.57;8.80;;;;;;;-145.69;100.00;52311.69;5082630;28;20198;-85
2023/04/07 01:20:33;;;;;;;20.00;9.73;;;;;;;-145.69;100.00;52325.56;5082543;28;20190;-84
2023/04/07 01:23:03;;;;;;;19.33;9.33;;;;;;;-145.69;100.00;52319.63;5081532;28;20218;-85
2023/04/07 01:25:53;;;;;;;21.37;9.40;;;;;;;-145.69;100.00;52327.53;5081949;28;20222;-85
2023/04/07 01:28:54;;;;;;;19.47;9.03;;;;;;;-145.69;100.00;52315.66;5082011;28;20210;-85
2023/04/07 01:31:25;;;;;;;23.03;9.30;;;;;;;-145.69;100.00;52327.53;5047415;28;20286;-85
2023/04/07 01:33:52;;;;;;;18.10;9.40;;;;;;;-145.69;100.00;52321.59;5080894;28;20195;-85
2023/04/07 01:36:20;;;;;;;21.23;9.43;;;;;;;-145.69;100.00;52335.47;5066723;28;20196;-85
2023/04/07 01:38:49;;;;;;;20.27;9.63;;;;;;;-145.69;100.00;52317.66;5061498;28;20242;-85
2023/04/07 01:41:17;;;;;;;17.33;8.93;;;;;;;-145.69;100.00;52355.28;5077856;28;20294;-84
2023/04/07 01:43:45;;;;;;;18.47;9.17;;;;;;;-145.69;100.00;52337.44;5077306;28;20231;-85
2023/04/07 01:46:12;;;;;;;19.47;9.17;;;;;;;-145.69;100.00;52351.31;5077735;28;20230;-85
2023/04/07 01:48:40;;;;;;;17.47;9.37;;;;;;;-145.69;100.00;52309.72;5078900;28;20198;-85
2023/04/07 01:51:10;;;;;;;20.43;8.50;;;;;;;-145.69;100.00;52353.28;5078681;28;20210;-85
2023/04/07 01:53:38;;;;;;;19.47;9.23;;;;;;;-145.69;100.00;52321.59;5078818;28;20195;-84
2023/04/07 01:56:05;;;;;;;22.93;9.93;;;;;;;-145.69;100.00;52339.44;5078066;28;20199;-85
2023/04/07 01:58:32;;;;;;;18.20;8.90;;;;;;;-145.69;100.00;52343.38;5077811;28;20596;-85
2023/04/07 02:00:59;;;;;;;16.80;8.40;;;;;;;-145.69;100.00;52323.59;5079088;28;20203;-85
2023/04/07 02:03:31;;;;;;;19.30;9.33;;;;;;;-145.69;100.00;52305.75;5077665;28;20198;-85
2023/04/07 02:06:06;;;;;;;20.60;8.67;;;;;;;-145.69;100.00;52313.69;5077997;28;20237;-84
2023/04/07 02:08:36;;;;;;;17.63;8.23;;;;;;;-145.69;100.00;52345.38;5077509;28;20200;-84
2023/04/07 02:11:06;;;;;;;20.80;9.53;;;;;;;-145.69;100.00;52335.47;5077055;28;20220;-84
2023/04/07 02:13:35;;;;;;;20.30;9.23;;;;;;;-145.69;100.00;52323.59;5077099;28;20203;-84
2023/04/07 02:16:02;;;;;;;19.27;8.73;;;;;;;-145.69;100.00;52363.19;5077991;28;20653;-84
2023/04/07 02:18:31;;;;;;;17.60;8.87;;;;;;;-145.69;100.00;52321.59;5080012;28;20260;-86
2023/04/07 02:21:00;;;;;;;16.67;7.87;;;;;;;-145.69;100.00;52341.41;5078521;28;20245;-86
2023/04/07 02:23:27;;;;;;;17.70;8.23;;;;;;;-145.69;100.00;52353.28;5077908;28;20214;-86
2023/04/07 02:25:56;;;;;;;16.27;7.97;;;;;;;-145.69;100.00;52333.47;5077396;28;20230;-86
2023/04/07 02:28:23;;;;;;;17.73;8.77;;;;;;;-145.69;100.00;52341.41;5076570;28;20203;-85
2023/04/07 02:30:49;;;;;;;18.33;8.57;;;;;;;-145.69;100.00;52363.19;5077606;28;20282;-85
2023/04/07 02:33:16;;;;;;;13.70;8.63;;;;;;;-145.69;100.00;52341.41;5077639;28;20203;-86
2023/04/07 02:35:42;;;;;;;17.50;8.47;;;;;;;-145.69;100.00;52321.59;5076853;28;20212;-85
2023/04/07 02:38:10;;;;;;;18.67;8.33;;;;;;;-145.69;100.00;52321.59;5077837;28;22002;-85
2023/04/07 02:40:37;;;;;;;17.60;8.53;;;;;;;-145.69;100.00;52341.41;5076398;28;20190;-86
2023/04/07 02:43:05;;;;;;;15.50;8.53;;;;;;;-145.69;100.00;52351.31;5076148;28;20771;-86
2023/04/07 02:45:34;;;;;;;18.50;8.23;;;;;;;-145.69;100.00;52337.44;5076766;28;20226;-85
2023/04/07 02:48:01;;;;;;;12.97;6.97;;;;;;;-145.69;100.00;52333.47;5076366;28;20226;-85
2023/04/07 02:50:27;;;;;;;15.53;7.47;;;;;;;-145.69;100.00;52317.66;5076961;28;20210;-86
2023/04/07 02:52:54;;;;;;;19.60;8.47;;;;;;;-145.69;100.00;52321.59;5078030;28;20209;-85
2023/04/07 02:55:22;;;;;;;15.33;8.40;;;;;;;-145.69;100.00;52377.06;5077673;28;20203;-86
2023/04/07 02:57:49;;;;;;;15.43;8.07;;;;;;;-145.69;100.00;52321.59;5075680;28;20653;-85
2023/04/07 03:00:16;;;;;;;17.97;8.13;;;;;;;-145.69;100.00;52351.31;5076900;28;20320;-86
2023/04/07 03:02:42;;;;;;;15.97;8.30;;;;;;;-145.69;100.00;52339.44;5076094;28;20195;-86
2023/04/07 03:05:09;;;;;;;14.90;7.90;;;;;;;-145.69;100.00;52313.69;5078111;28;20203;-85
2023/04/07 03:07:36;;;;;;;16.97;8.53;;;;;;;-145.69;100.00;52361.22;5076403;28;20221;-86
2023/04/07 03:10:02;;;;;;;20.83;7.90;;;;;;;-145.69;100.00;52329.53;5078215;28;20202;-85
2023/04/07 03:12:30;;;;;;;15.87;8.33;;;;;;;-145.69;100.00;52333.47;5078567;28;20703;-85
2023/04/07 03:14:56;;;;;;;15.60;7.80;;;;;;;-145.69;100.00;52353.28;5077432;28;20203;-85
2023/04/07 03:17:23;;;;;;;14.17;7.80;;;;;;;-145.69;100.00;52349.31;5078751;28;20195;-85
2023/04/07 03:19:50;;;;;;;16.83;8.37;;;;;;;-145.69;100.00;52353.28;5079481;28;20202;-86
2023/04/07 03:22:17;;;;;;;16.70;8.17;;;;;;;-145.69;100.00;52325.56;5076512;28;20195;-86
2023/04/07 03:24:46;;;;;;;13.87;7.33;;;;;;;-145.69;100.00;52321.59;5076597;28;20199;-86
2023/04/07 03:27:12;;;;;;;17.13;7.80;;;;;;;-145.69;100.00;52343.38;5078589;28;20222;-85
2023/04/07 03:29:40;;;;;;;15.20;7.47;;;;;;;-145.69;100.00;52329.53;5078619;28;20654;-85
2023/04/07 03:32:07;;;;;;;17.67;8.47;;;;;;;-145.69;100.00;52369.13;5077976;28;20281;-85
2023/04/07 03:34:33;;;;;;;17.67;8.23;;;;;;;-145.69;100.00;52325.56;5075552;28;20199;-85
2023/04/07 03:37:02;;;;;;;15.30;7.70;;;;;;;-145.69;100.00;52327.53;5075367;28;20203;-85
2023/04/07 03:39:28;;;;;;;19.70;8.47;;;;;;;-145.69;100.00;52345.38;5069516;28;20206;-85
2023/04/07 03:41:55;;;;;;;17.27;8.37;;;;;;;-145.69;100.00;52333.47;5074486;28;20210;-83
2023/04/07 03:44:23;;;;;;;18.70;8.80;;;;;;;-145.69;100.00;52345.38;5075018;28;20276;-85
2023/04/07 03:46:53;;;;;;;19.17;8.83;;;;;;;-145.69;100.00;52311.69;5077385;28;20227;-85
2023/04/07 03:49:19;;;;;;;18.60;8.27;;;;;;;-145.69;100.00;52373.09;5080074;28;20221;-85
2023/04/07 03:51:46;;;;;;;19.67;9.30;;;;;;;-145.69;100.00;52353.28;5079540;28;20199;-85
2023/04/07 03:54:13;;;;;;;16.07;8.23;;;;;;;-145.69;100.00;52329.53;5080205;28;20195;-85
2023/04/07 03:56:39;;;;;;;17.67;7.63;;;;;;;-145.69;100.00;52367.16;5078326;28;20198;-85
2023/04/07 03:59:06;;;;;;;17.07;8.67;;;;;;;-145.69;100.00;52365.16;5078072;28;20668;-85
2023/04/07 04:01:33;;;;;;;14.07;7.30;;;;;;;-145.69;100.00;52323.59;5078489;28;20199;-85
2023/04/07 04:04:00;;;;;;;18.07;8.13;;;;;;;-145.69;100.00;52341.41;5078177;28;20222;-85
2023/04/07 04:06:27;;;;;;;18.63;8.00;;;;;;;-145.69;100.00;52329.53;5078194;28;20230;-85
2023/04/07 04:08:56;;;;;;;15.40;7.40;;;;;;;-145.69;100.00;52317.66;5077797;28;20557;-85
2023/04/07 04:11:26;;;;;;;18.43;8.23;;;;;;;-145.69;100.00;52353.28;5076921;28;20199;-85
2023/04/07 04:13:52;;;;;;;14.53;7.63;;;;;;;-145.69;100.00;52365.16;5076223;28;20225;-85
2023/04/07 04:16:21;;;;;;;14.70;7.80;;;;;;;-145.69;100.00;52325.56;5074572;28;20209;-85
2023/04/07 04:18:51;;;;;;;23.20;8.53;;;;;;;-145.69;100.00;52369.13;5075954;28;20202;-84
2023/04/07 04:21:19;;;;;;;18.67;8.60;;;;;;;-145.69;100.00;52345.38;5076323;28;20203;-85
2023/04/07 04:23:48;;;;;;;18.73;8.53;;;;;;;-145.69;100.00;52323.59;5075835;28;20203;-84
2023/04/07 04:26:17;;;;;;;17.80;8.23;;;;;;;-145.69;100.00;52359.22;5075071;28;20232;-86
2023/04/07 04:28:44;;;;;;;18.93;9.30;;;;;;;-145.69;100.00;52323.59;5073454;28;20557;-85
2023/04/07 04:31:10;;;;;;;19.00;9.00;;;;;;;-145.69;100.00;52379.03;5074004;28;20210;-84
2023/04/07 04:33:37;;;;;;;20.07;8.93;;;;;;;-145.69;100.00;52337.44;5073608;28;20203;-86
2023/04/07 04:36:04;;;;;;;15.93;8.07;;;;;;;-145.69;100.00;52355.28;5073653;28;20676;-86
2023/04/07 04:38:32;;;;;;;19.27;8.87;;;;;;;-145.69;100.00;52355.28;5073793;28;20207;-86
2023/04/07 04:41:00;;;;;;;16.80;8.23;;;;;;;-145.69;100.00;52365.16;5072689;28;20201;-86
2023/04/07 04:43:30;;;;;;;18.13;8.17;;;;;;;-145.69;100.00;52373.09;5073741;28;20237;-86
2023/04/07 04:45:57;;;;;;;18.53;8.00;;;;;;;-145.69;100.00;52353.28;5076532;28;20248;-85
2023/04/07 04:48:26;;;;;;;18.50;8.63;;;;;;;-145.69;100.00;52331.50;5078183;28;20800;-85
2023/04/07 04:50:53;;;;;;;18.17;8.27;;;;;;;-145.69;100.00;52337.44;5078004;28;20199;-86
2023/04/07 04:53:24;;;;;;;23.93;8.43;;;;;;;-145.69;100.00;52365.16;5078065;28;20206;-86
2023/04/07 04:55:52;;;;;;;17.80;7.97;;;;;;;-145.69;100.00;52305.75;5077702;28;20201;-86
2023/04/07 04:58:18;;;;;;;19.67;7.80;;;;;;;-145.69;100.00;52369.13;5076949;28;20191;-85
2023/04/07 05:00:45;;;;;;;16.03;8.27;;;;;;;-145.69;100.00;52337.44;5077334;28;20202;-85
2023/04/07 05:03:11;;;;;;;14.27;7.93;;;;;;;-145.69;100.00;52381.00;5077427;28;20237;-85
2023/04/07 05:05:38;;;;;;;15.83;7.33;;;;;;;-145.69;100.00;52371.13;5077539;28;20195;-85
2023/04/07 05:08:05;;;;;;;14.50;6.93;;;;;;;-145.69;100.00;52384.97;5076953;28;20203;-85
2023/04/07 05:10:32;;;;;;;12.87;6.60;;;;;;;-145.69;100.00;52373.09;5077228;28;20207;-84
2023/04/07 05:13:00;;;;;;;17.77;8.03;;;;;;;-145.69;100.00;52365.16;5076961;28;20763;-85
2023/04/07 05:15:26;;;;;;;16.67;8.10;;;;;;;-145.69;100.00;52357.25;5077423;28;20568;-84
2023/04/07 05:17:53;;;;;;;16.80;8.40;;;;;;;-145.69;100.00;52373.09;5077118;28;20199;-85
2023/04/07 05:20:21;;;;;;;20.83;9.10;;;;;;;-145.69;100.00;52396.84;5077255;28;20222;-86
2023/04/07 05:22:48;;;;;;;18.40;7.77;;;;;;;-145.69;100.00;52367.16;5077259;28;20202;-85
2023/04/07 05:25:14;;;;;;;25.30;8.67;;;;;;;-145.69;100.00;52369.13;5077107;28;20285;-85
2023/04/07 05:27:41;;;;;;;16.27;7.63;;;;;;;-145.69;100.00;52379.03;5077080;28;20388;-85
2023/04/07 05:30:10;;;;;;;18.33;8.03;;;;;;;-145.69;100.00;52341.41;5077109;28;20232;-86
2023/04/07 05:32:37;;;;;;;17.03;8.27;;;;;;;-145.69;100.00;52339.44;5076856;28;20584;-85
2023/04/07 05:35:05;;;;;;;16.13;8.57;;;;;;;-145.69;100.00;52339.44;5076939;28;20207;-86
2023/04/07 05:37:32;;;;;;;16.87;8.07;;;;;;;-145.69;100.00;52373.09;5076835;28;20301;-85
2023/04/07 05:39:58;;;;;;;17.07;7.53;;;;;;;-145.69;100.00;52377.06;5072218;28;20202;-86
2023/04/07 05:42:25;;;;;;;17.23;7.60;;;;;;;-145.69;100.00;52347.34;5076447;28;20198;-85
2023/04/07 05:44:55;;;;;;;15.20;7.07;;;;;;;-145.69;100.00;52381.00;5076790;28;20202;-85
2023/04/07 05:47:23;;;;;;;13.33;6.93;;;;;;;-145.69;100.00;52353.28;5077026;28;20231;-86
2023/04/07 05:49:52;;;;;;;19.87;7.17;;;;;;;-145.69;100.00;52384.97;5076708;28;20289;-86
2023/04/07 05:52:18;;;;;;;13.27;6.40;;;;;;;-145.69;100.00;52351.31;5076452;28;20198;-86
2023/04/07 05:54:45;;;;;;;11.63;5.80;;;;;;;-145.69;100.00;52327.53;5076472;28;20206;-85
2023/04/07 05:57:11;;;;;;;14.07;6.73;;;;;;;-145.69;100.00;52363.19;5075843;28;20194;-85
2023/04/07 05:59:38;;;;;;;13.10;6.13;;;;;;;-145.69;100.00;52369.13;5076321;28;20187;-86
2023/04/07 06:02:04;;;;;;;14.43;5.77;;;;;;;-145.69;100.00;52329.53;5075856;28;20191;-86
2023/04/07 06:04:34;;;;;;;12.93;5.47;;;;;;;-145.69;100.00;52349.31;5076219;28;20294;-86
2023/04/07 06:07:00;;;;;;;9.23;5.30;;;;;;;-145.69;100.00;52361.22;5075876;28;20222;-86
2023/04/07 06:09:28;;;;;;;13.37;5.23;;;;;;;-145.69;100.00;52341.41;5076382;28;20203;-85
2023/04/07 06:11:55;;;;;;;9.00;4.63;;;;;;;-145.69;100.00;52333.47;5076441;28;20645;-83
2023/04/07 06:14:34;;;;;;;14.20;5.07;;;;;;;-145.69;100.00;52363.19;5076098;28;20665;-86
2023/04/07 06:17:00;;;;;;;11.10;4.43;;;;;;;-145.69;100.00;52355.28;5076108;28;20195;-85
2023/04/07 06:19:27;;;;;;;9.60;5.00;;;;;;;-145.69;100.00;52365.16;5076247;28;20221;-86
2023/04/07 06:21:55;;;;;;;8.13;4.47;;;;;;;-145.69;100.00;52347.34;5075883;28;20231;-86
2023/04/07 06:24:24;;;;;;;7.53;4.20;;;;;;;-145.69;100.00;52341.41;5076264;28;20256;-86
2023/04/07 06:26:52;;;;;;;8.40;4.70;;;;;;;-145.69;100.00;52343.38;5075919;28;20247;-86
2023/04/07 06:29:18;;;;;;;9.53;4.47;;;;;;;-145.69;100.00;52325.56;5076037;28;20364;-86
2023/04/07 06:31:45;;;;;;;8.63;4.80;;;;;;;-145.69;100.00;52365.16;5076211;28;20209;-85
2023/04/07 06:34:13;;;;;;;9.30;4.57;;;;;;;-145.69;100.00;52377.06;5080207;28;20397;-86
2023/04/07 06:36:39;;;;;;;11.07;5.23;;;;;;;-145.69;100.00;52321.59;5080468;28;20206;-85
2023/04/07 06:39:07;;;;;;;10.10;5.40;;;;;;;-145.69;100.00;52349.31;5080872;28;20191;-85
2023/04/07 06:41:37;;;;;;;8.83;5.20;;;;;;;-145.69;100.00;52317.66;5060393;28;20211;-85
2023/04/07 06:44:04;;;;;;;7.43;4.30;;;;;;;-145.69;100.00;52337.44;5061232;28;20227;-85
2023/04/07 06:46:31;;;;;;;9.10;4.47;;;;;;;-145.69;100.00;52337.44;5060412;28;20223;-85
2023/04/07 06:48:57;;;;;;;7.50;4.53;;;;;;;-145.69;100.00;52317.66;5061674;28;20206;-85
2023/04/07 06:51:25;;;;;;;8.27;4.80;;;;;;;-145.69;100.00;52325.56;5058193;28;20196;-84
2023/04/07 06:53:53;;;;;;;7.40;4.40;;;;;;;-145.69;100.00;52357.25;5058627;28;20294;-84
2023/04/07 06:56:21;;;;;;;9.47;4.90;;;;;;;-145.69;100.00;52365.16;5057817;28;20245;-85
2023/04/07 06:58:47;;;;;;;8.03;4.57;;;;;;;-145.69;100.00;52331.50;5058445;28;20210;-84
2023/04/07 07:01:14;;;;;;;10.17;5.13;;;;;;;-145.69;100.00;52349.31;5057395;28;20199;-84
2023/04/07 07:03:40;;;;;;;9.33;5.27;;;;;;;-145.69;100.00;52361.22;5056508;28;20199;-85
2023/04/07 07:06:07;;;;;;;12.13;5.50;;;;;;;-145.69;100.00;52319.63;5057137;28;20199;-84
2023/04/07 07:08:40;;;;;;;9.10;4.70;;;;;;;-145.69;100.00;52282.00;5068850;28;20227;-84
2023/04/07 07:11:07;;;;;;;8.20;4.60;;;;;;;-145.69;100.00;52335.47;5076303;28;20203;-85
2023/04/07 07:13:35;;;;;;;10.37;3.93;;;;;;;-145.69;100.00;52323.59;5077398;28;20199;-85
2023/04/07 07:16:01;;;;;;;10.43;4.07;;;;;;;-145.69;100.00;52329.53;5077514;28;20202;-85
2023/04/07 07:18:28;;;;;;;7.90;3.50;;;;;;;-145.69;100.00;52331.50;5081137;28;20198;-84
2023/04/07 07:20:54;;;;;;;5.43;3.30;;;;;;;-145.69;98.84;52333.47;5081347;28;20194;-85
2023/04/07 07:23:21;;;;;;;6.10;3.27;;;;;;;-145.69;99.66;52297.84;5079828;28;20281;-84
2023/04/07 07:25:47;;;;;;;6.93;3.30;;;;;;;-145.69;99.98;52293.88;5074611;28;20195;-83
2023/04/07 07:28:14;;;;;;;6.90;3.53;;;;;;;-145.69;100.00;52293.88;5074124;28;20232;-84
2023/04/07 07:30:42;;;;;;;6.30;3.03;;;;;;;-145.69;95.07;52297.84;5077317;28;20206;-85
2023/04/07 07:33:08;;;;;;;9.17;3.67;;;;;;;-145.69;95.41;52305.75;5079441;28;20233;-85
2023/04/07 07:35:36;;;;;;;4.37;2.97;;;;;;;-145.69;96.19;52295.84;5072535;28;20642;-85
2023/04/07 07:38:03;;;;;;;5.30;3.30;;;;;;;-145.69;95.92;52293.88;5075389;28;20642;-84
2023/04/07 07:40:29;;;;;;;7.57;3.03;;;;;;;-145.69;95.97;52303.78;5075592;28;20206;-83
2023/04/07 07:43:00;;;;;;;6.90;3.33;;;;;;;-145.69;95.63;52266.16;5076763;28;20476;-85
2023/04/07 07:45:26;;;;;;;7.67;3.30;;;;;;;-145.69;92.97;52309.72;5079181;28;20262;-85
2023/04/07 07:47:54;;;;;;;4.87;2.73;;;;;;;-145.69;91.04;52297.84;5077146;28;20237;-84
2023/04/07 07:50:21;;;;;;;4.50;2.90;;;;;;;-145.69;88.38;52297.84;5075638;28;20205;-85
2023/04/07 07:52:50;;;;;;;4.90;2.90;;;;;;;-145.69;86.50;52301.81;5075050;28;20207;-83
2023/04/07 07:55:19;;;;;;;4.93;2.77;;;;;;;-145.69;86.36;52282.00;5077524;28;20399;-85
2023/04/07 07:57:45;;;;;;;5.73;2.73;;;;;;;-145.69;84.76;52268.13;5075962;28;20195;-83
2023/04/07 08:00:13;;;;;;;6.30;2.20;;;;;;;-145.69;87.26;52285.97;5076580;28;20205;-84
2023/04/07 08:02:40;;;;;;;5.73;3.47;;;;;;;-145.69;88.90;52289.91;5076872;28;20647;-84
2023/04/07 08:05:08;;;;;;;8.33;3.00;;;;;;;-145.69;88.19;52272.09;5076536;28;20210;-84
2023/04/07 08:07:35;;;;;;;4.60;2.60;;;;;;;-145.69;85.00;52299.81;5076758;28;20710;-83
2023/04/07 08:10:01;;;;;;;12.23;3.30;;;;;;;-145.69;88.49;52291.91;5076337;28;20206;-83
2023/04/07 08:12:28;;;;;;;4.30;2.77;;;;;;;-145.69;88.72;52305.75;5076867;28;20191;-84
2023/04/07 08:14:54;;;;;;;4.07;2.80;;;;;;;-145.69;92.31;52278.03;5077608;28;20203;-83
2023/04/07 08:17:21;;;;;;;6.70;3.17;;;;;;;-145.69;95.66;52276.06;5076899;28;20668;-83
2023/04/07 08:19:47;;;;;;;6.30;3.33;;;;;;;-145.69;93.01;52291.91;5077976;28;20202;-84
2023/04/07 08:22:15;;;;;;;7.17;3.10;;;;;;;-145.69;88.66;52293.88;5077468;28;20206;-84
2023/04/07 08:24:45;;;;;;;7.07;2.97;;;;;;;-145.69;86.93;52262.19;5076918;28;20212;-83
2023/04/07 08:27:11;;;;;;;5.17;2.90;;;;;;;-145.69;88.60;52309.72;5077428;28;20223;-84
2023/04/07 08:29:38;;;;;;;5.03;2.70;;;;;;;-145.69;87.22;52246.34;5077441;28;20195;-84
2023/04/07 08:32:05;;;;;;;4.90;2.53;;;;;;;-145.69;90.09;52266.16;5078159;28;20210;-84
2023/04/07 08:34:31;;;;;;;7.50;2.87;;;;;;;-145.69;92.66;52285.97;5086467;28;20297;-84
2023/04/07 08:36:58;;;;;;;6.13;3.00;;;;;;;-145.69;80.58;52230.50;5090772;28;20187;-84
2023/04/07 08:39:28;;;;;;;6.83;2.40;;;;;;;-145.69;81.04;52266.16;5090528;28;20194;-83
2023/04/07 08:41:56;;;;;;;6.80;2.70;;;;;;;-145.69;85.67;52293.88;5083306;28;20198;-83
2023/04/07 08:44:30;;;;;;;3.77;2.30;;;;;;;-145.69;86.10;52266.16;5078117;28;20249;-84
2023/04/07 08:46:58;;;;;;;7.63;2.60;;;;;;;-145.69;89.90;52266.16;5076295;28;20202;-84
2023/04/07 08:49:28;;;;;;;7.83;3.00;;;;;;;-145.69;90.53;52272.09;5077397;28;20657;-84
2023/04/07 08:51:58;;;;;;;6.23;2.83;;;;;;;-145.69;85.43;52270.13;5077760;28;20206;-84
2023/04/07 08:54:27;;;;;;;7.33;2.73;;;;;;;-145.69;84.21;52282.00;5078091;28;20605;-84
2023/04/07 08:56:54;;;;;;;6.83;2.50;;;;;;;-145.69;82.75;52289.91;5077300;28;20615;-83
2023/04/07 08:59:25;;;;;;;7.87;2.67;;;;;;;-145.69;81.28;52303.78;5078282;28;20542;-84
2023/04/07 09:01:52;;;;;;;4.87;2.73;;;;;;;-145.69;82.49;52278.03;5077080;28;20213;-84
2023/04/07 09:04:19;;;;;;;3.70;2.47;;;;;;;-145.69;80.10;52252.28;5076585;28;20203;-84
2023/04/07 09:06:45;;;;;;;6.00;2.13;;;;;;;-145.69;84.22;52282.00;5076378;28;20211;-84
2023/04/07 09:09:12;;;;;;;4.03;2.67;;;;;;;-145.69;82.28;52268.13;5076242;28;20227;-84
2023/04/07 09:11:40;;;;;;;7.27;2.73;;;;;;;-145.69;79.78;52262.19;5076485;28;20223;-84
2023/04/07 09:14:07;;;;;;;5.43;2.30;;;;;;;-145.69;77.52;52234.47;5076659;28;20225;-84
2023/04/07 09:16:33;;;;;;;5.53;2.53;;;;;;;-145.69;80.85;52248.34;5075422;28;20207;-84
2023/04/07 09:19:00;;;;;;;7.43;2.67;;;;;;;-145.69;79.36;52297.84;5075403;28;20205;-84
2023/04/07 09:21:27;;;;;;;5.27;2.53;;;;;;;-145.69;73.30;52270.13;5076364;28;20198;-85
2023/04/07 09:23:53;;;;;;;9.03;2.60;;;;;;;-145.69;72.98;52264.16;5076320;28;20207;-85
2023/04/07 09:26:23;;;;;;;6.13;2.28;;;;;;;-145.69;70.31;52270.13;5076317;28;20202;-84
2023/04/07 09:28:53;;;;;;;3.00;2.40;;;;;;;-145.69;81.89;52285.97;5067859;28;20222;-84
2023/04/07 09:31:21;;;;;;;8.73;2.20;;;;;;;-145.69;84.12;52291.91;5075251;28;20190;-84
2023/04/07 09:33:48;;;;;;;6.80;2.70;;;;;;;-145.69;82.63;52258.22;5080001;28;20198;-84
2023/04/07 09:36:14;;;;;;;8.93;2.40;;;;;;;-145.69;89.34;52266.16;5078944;28;20297;-84
2023/04/07 09:38:41;;;;;;;3.67;2.37;;;;;;;-145.69;82.56;52262.19;5080083;28;20716;-84
2023/04/07 09:41:10;;;;;;;10.57;3.03;;;;;;;-145.69;85.54;52248.34;5079344;28;20199;-83
2023/04/07 09:43:37;;;;;;;6.80;2.60;;;;;;;-145.69;83.31;52254.28;5079965;28;20321;-84
2023/04/07 09:46:10;;;;;;;5.63;2.30;;;;;;;-145.69;76.61;52256.25;5080991;28;20229;-85
2023/04/07 09:48:37;;;;;;;5.07;2.03;;;;;;;-145.69;75.13;52274.06;5057134;28;20694;-83
2023/04/07 09:51:09;;;;;;;5.30;2.27;;;;;;;-145.69;73.09;52274.06;5075744;28;20195;-83
2023/04/07 09:53:47;;;;;;;11.37;2.37;;;;;;;-145.69;63.19;52238.44;5075809;28;20195;-83
2023/04/07 09:56:15;;;;;;;4.53;1.93;;;;;;;-145.69;60.21;52238.44;5075874;28;20271;-84
2023/04/07 09:58:44;;;;;;;6.55;1.95;;;;;;;-145.69;59.95;52230.50;5075068;28;20207;-83
2023/04/07 10:01:12;;;;;;;6.72;1.65;;;;;;;-145.69;65.57;52250.31;5075995;28;20203;-84
2023/04/07 10:03:39;;;;;;;7.15;2.08;;;;;;;-145.69;60.43;52222.59;5075526;28;20557;-83
2023/04/07 10:06:06;;;;;;;4.97;1.70;;;;;;;-145.69;54.92;52234.47;5075628;28;20210;-83
2023/04/07 10:08:35;;;;;;;6.22;1.90;;;;;;;-145.69;54.58;52262.19;5075459;28;20222;-84
2023/04/07 10:11:02;;;;;;;3.80;1.98;;;;;;;-145.69;55.48;52222.59;5075407;28;20209;-83
2023/04/07 10:13:29;;;;;;;3.75;1.70;;;;;;;-145.69;52.45;52268.13;5075623;28;20206;-82
2023/04/07 10:15:57;;;;;;;7.07;1.70;;;;;;;-145.69;56.75;52234.47;5075303;28;20591;-84
2023/04/07 10:18:30;;;;;;;5.20;1.58;;;;;;;-145.69;54.83;52234.47;5075222;28;20217;-84
2023/04/07 10:20:57;;;;;;;6.05;1.80;;;;;;;-145.69;53.42;52262.19;5075350;28;20198;-83
2023/04/07 10:23:29;;;;;;;5.53;1.90;;;;;;;-145.69;54.16;52258.22;5074378;28;20203;-84
2023/04/07 10:25:58;;;;;;;4.13;1.73;;;;;;;-145.69;63.31;52258.22;5075060;28;20653;-83
2023/04/07 10:28:27;;;;;;;4.90;1.80;;;;;;;-145.69;57.33;52250.31;5074956;28;20253;-83
2023/04/07 10:30:54;;;;;;;4.82;1.90;;;;;;;-145.69;60.24;52238.44;5075281;28;20199;-83
2023/04/07 10:33:47;;;;;;;5.72;2.03;;;;;;;-145.69;62.85;52262.19;5074987;28;20199;-84
2023/04/07 10:36:13;;;;;;;6.97;2.08;;;;;;;-145.69;59.72;52262.19;5075372;28;20230;-83
2023/04/07 10:38:40;;;;;;;6.70;1.95;;;;;;;-145.69;63.31;52262.19;5075088;28;20212;-83
2023/04/07 10:41:31;;;;;;;7.60;2.10;;;;;;;-145.69;58.63;52222.59;5075220;28;20199;-84
2023/04/07 10:43:58;;;;;;;3.42;1.67;;;;;;;-145.69;54.00;52186.94;5075058;28;20236;-84
2023/04/07 10:46:25;;;;;;;4.22;1.75;;;;;;;-145.69;54.49;52226.53;5076131;28;20206;-85
2023/04/07 10:49:12;;;;;;;6.50;1.63;;;;;;;-145.69;48.36;52194.88;5075226;28;20226;-85
2023/04/07 10:51:38;;;;;;;4.13;1.45;;;;;;;-145.69;51.76;52220.59;5074596;28;20268;-83
2023/04/07 10:54:21;;;;;;;4.70;1.80;;;;;;;-145.69;51.55;52230.50;5074402;28;20657;-84
2023/04/07 10:57:09;;;;;;;5.43;2.03;;;;;;;-145.69;57.45;52256.25;5074372;28;20202;-83
2023/04/07 10:59:37;;;;;;;4.53;1.60;;;;;;;-145.69;62.40;52266.16;5074690;28;20207;-83
2023/04/07 11:02:32;;;;;;;6.15;2.25;;;;;;;-145.69;58.54;52218.63;5073849;28;20199;-83
2023/04/07 11:05:03;;;;;;;2.92;1.90;;;;;;;-145.69;58.46;52246.34;5074091;28;20669;-83
2023/04/07 11:07:48;;;;;;;5.72;1.95;;;;;;;-145.69;61.54;52254.28;5074523;28;20199;-83
2023/04/07 11:10:17;;;;;;;8.38;2.13;;;;;;;-145.69;60.72;52234.47;5074598;28;20264;-82
2023/04/07 11:12:44;;;;;;;4.47;1.75;;;;;;;-145.69;55.57;52246.34;5074377;28;20206;-83